createdAt,value
2023-01-09T00:00:14.518Z,47.91
2023-01-09T00:01:21.160Z,40.24
2023-01-09T00:02:24.342Z,42.73
2023-01-09T00:03:27.451Z,38.31
2023-01-09T00:04:30.711Z,42.74
2023-01-09T00:05:33.742Z,40.17
2023-01-09T00:06:36.885Z,39.17
2023-01-09T00:07:39.847Z,41.96
2023-01-09T00:08:42.851Z,39.08
2023-01-09T00:09:45.764Z,42.75
2023-01-09T00:10:49.891Z,34.87
2023-01-09T00:11:54.443Z,38.04
2023-01-09T00:12:57.408Z,35.13
2023-01-09T00:14:00.358Z,41.11
2023-01-09T00:15:04.795Z,39.23
2023-01-09T00:16:08.862Z,34.62
2023-01-09T00:17:11.938Z,39.11
2023-01-09T00:18:14.870Z,35.03
2023-01-09T00:19:17.901Z,44.73
2023-01-09T00:20:21.337Z,39.83
2023-01-09T00:21:24.258Z,42.24
2023-01-09T00:22:27.176Z,44.36
2023-01-09T00:23:30.327Z,43.24
2023-01-09T00:24:33.273Z,39.36
2023-01-09T00:25:36.426Z,38.13
2023-01-09T00:26:39.825Z,39.66
2023-01-09T00:27:43.250Z,38.26
2023-01-09T00:28:48.306Z,41.42
2023-01-09T00:29:52.179Z,41.76
2023-01-09T00:30:56.975Z,41.65
2023-01-09T00:31:59.913Z,42.34
2023-01-09T00:33:02.992Z,47.48
2023-01-09T00:34:09.540Z,43.68
2023-01-09T00:35:15.805Z,45.43
2023-01-09T00:36:19.097Z,45.06
2023-01-09T00:37:22.535Z,42.74
2023-01-09T00:38:25.675Z,39.41
2023-01-09T00:39:28.916Z,46.92
2023-01-09T00:40:32.052Z,48.55
2023-01-09T00:41:44.483Z,52.14
2023-01-09T00:42:51.215Z,54.23
2023-01-09T00:43:57.774Z,55.09
2023-01-09T00:45:04.131Z,53.68
2023-01-09T00:46:08.138Z,51.34
2023-01-09T00:47:19.947Z,58.71
2023-01-09T00:48:26.716Z,63.12
2023-01-09T00:49:32.328Z,55.03
2023-01-09T00:50:36.116Z,59.48
2023-01-09T00:51:41.171Z,57.20
2023-01-09T00:52:45.960Z,54.97
2023-01-09T00:53:50.418Z,52.06
2023-01-09T00:54:53.599Z,57.32
2023-01-09T00:56:00.133Z,56.19
2023-01-09T00:57:03.568Z,53.85
2023-01-09T00:58:06.815Z,50.83
2023-01-09T00:59:09.780Z,52.67
2023-01-09T01:00:13.825Z,53.30
2023-01-09T01:01:16.937Z,54.14
2023-01-09T01:02:20.410Z,59.68
2023-01-09T01:03:23.392Z,51.83
2023-01-09T01:04:44.664Z,49.01
2023-01-09T01:06:06.091Z,46.64
2023-01-09T01:07:27.610Z,48.26
2023-01-09T01:08:30.598Z,44.21
2023-01-09T01:09:33.551Z,45.07
2023-01-09T01:10:36.904Z,43.33
2023-01-09T01:11:39.764Z,48.98
2023-01-09T01:12:43.884Z,41.68
2023-01-09T01:13:46.846Z,45.72
2023-01-09T01:14:49.763Z,49.96
2023-01-09T01:15:52.804Z,46.41
2023-01-09T01:16:55.922Z,46.86
2023-01-09T01:17:58.787Z,47.84
2023-01-09T01:19:02.141Z,53.11
2023-01-09T01:20:07.585Z,51.07
2023-01-09T01:21:12.267Z,57.17
2023-01-09T01:22:15.204Z,54.70
2023-01-09T01:23:18.162Z,49.55
2023-01-09T01:24:21.136Z,53.67
2023-01-09T01:25:24.366Z,52.29
2023-01-09T01:26:27.286Z,55.08
2023-01-09T01:27:30.214Z,54.34
2023-01-09T01:28:33.438Z,56.47
2023-01-09T01:29:36.579Z,51.87
2023-01-09T01:30:41.064Z,53.04
2023-01-09T01:31:43.972Z,55.94
2023-01-09T01:32:47.249Z,53.27
2023-01-09T01:33:50.200Z,53.34
2023-01-09T01:34:53.173Z,53.79
2023-01-09T01:36:07.877Z,48.54
2023-01-09T01:37:10.862Z,50.92
2023-01-09T01:38:13.902Z,49.89
2023-01-09T01:39:17.045Z,47.08
2023-01-09T01:40:20.356Z,57.80
2023-01-09T01:41:29.942Z,50.33
2023-01-09T01:42:33.235Z,46.46
2023-01-09T01:43:57.939Z,52.65
2023-01-09T01:45:16.290Z,44.93
2023-01-09T01:46:20.245Z,51.99
2023-01-09T01:47:26.702Z,45.08
2023-01-09T01:48:30.300Z,46.43
2023-01-09T01:49:33.432Z,48.16
2023-01-09T01:50:46.114Z,45.66
2023-01-09T01:51:52.637Z,45.24
2023-01-09T01:53:04.659Z,52.08
2023-01-09T01:54:11.168Z,54.50
2023-01-09T01:55:16.130Z,55.88
2023-01-09T01:56:25.902Z,54.61
2023-01-09T01:57:30.445Z,63.56
2023-01-09T01:58:36.868Z,72.10
2023-01-09T01:59:48.437Z,82.57
2023-01-09T02:00:51.880Z,93.07
2023-01-09T02:01:58.589Z,97.52
2023-01-09T02:03:02.572Z,94.51
2023-01-09T02:04:05.606Z,93.81
2023-01-09T02:05:09.058Z,84.41
2023-01-09T02:06:13.309Z,75.68
2023-01-09T02:07:16.268Z,73.92
2023-01-09T02:08:20.019Z,70.01
2023-01-09T02:09:24.681Z,47.62
2023-01-09T02:10:28.147Z,49.03
2023-01-09T02:11:31.530Z,44.69
2023-01-09T02:12:34.542Z,45.38
2023-01-09T02:13:39.886Z,51.13
2023-01-09T02:14:44.906Z,46.37
2023-01-09T02:15:57.645Z,40.79
2023-01-09T02:17:04.298Z,40.65
2023-01-09T02:18:13.793Z,40.08
2023-01-09T02:19:23.180Z,33.94
2023-01-09T02:20:44.706Z,37.32
2023-01-09T02:22:08.173Z,38.26
2023-01-09T02:23:32.687Z,37.55
2023-01-09T02:24:45.291Z,32.96
2023-01-09T02:26:08.752Z,31.49
2023-01-09T02:27:27.269Z,37.58
2023-01-09T02:28:36.764Z,34.70
2023-01-09T02:30:14.960Z,32.87
2023-01-09T02:31:37.211Z,30.29
2023-01-09T02:32:44.159Z,33.70
2023-01-09T02:34:11.430Z,32.37
2023-01-09T02:35:17.957Z,30.41
2023-01-09T02:36:36.411Z,30.39
2023-01-09T02:38:03.940Z,29.29
2023-01-09T02:39:13.509Z,27.84
2023-01-09T02:41:34.554Z,27.46
2023-01-09T02:42:40.583Z,39.16
2023-01-09T02:43:43.680Z,32.78
2023-01-09T02:44:46.700Z,26.86
2023-01-09T02:45:49.804Z,33.96
2023-01-09T02:47:08.012Z,27.53
2023-01-09T02:48:11.593Z,31.34
2023-01-09T02:49:16.519Z,30.55
2023-01-09T02:50:26.419Z,32.47
2023-01-09T02:51:38.453Z,29.55
2023-01-09T02:52:44.976Z,26.71
2023-01-09T02:53:54.722Z,29.22
2023-01-09T02:55:04.333Z,34.56
2023-01-09T02:56:16.948Z,30.53
2023-01-09T02:57:35.684Z,29.73
2023-01-09T02:58:46.326Z,32.14
2023-01-09T03:00:16.963Z,34.01
2023-01-09T03:01:26.680Z,30.38
2023-01-09T03:02:34.011Z,28.36
2023-01-09T03:04:01.837Z,30.98
2023-01-09T03:05:24.749Z,33.52
2023-01-09T03:06:39.979Z,39.39
2023-01-09T03:07:49.577Z,36.60
2023-01-09T03:08:56.859Z,39.99
2023-01-09T03:10:09.502Z,37.60
2023-01-09T03:11:12.410Z,36.24
2023-01-09T03:12:19.008Z,35.68
2023-01-09T03:13:24.386Z,38.57
2023-01-09T03:14:30.998Z,35.33
2023-01-09T03:15:36.581Z,43.97
2023-01-09T03:16:41.857Z,38.92
2023-01-09T03:17:48.072Z,37.58
2023-01-09T03:18:52.457Z,40.68
2023-01-09T03:19:57.533Z,40.87
2023-01-09T03:21:01.898Z,43.04
2023-01-09T03:22:07.160Z,42.58
2023-01-09T03:23:10.221Z,52.87
2023-01-09T03:24:13.177Z,70.20
2023-01-09T03:25:17.724Z,89.73
2023-01-09T03:26:21.358Z,85.38
2023-01-09T03:27:24.598Z,80.84
2023-01-09T03:28:30.336Z,62.56
2023-01-09T03:29:33.405Z,51.19
2023-01-09T03:30:37.037Z,48.36
2023-01-09T03:31:40.053Z,48.14
2023-01-09T03:32:43.149Z,45.25
2023-01-09T03:33:46.026Z,40.93
2023-01-09T03:34:48.984Z,40.99
2023-01-09T03:35:51.934Z,43.48
2023-01-09T03:36:54.991Z,36.94
2023-01-09T03:37:58.651Z,38.62
2023-01-09T03:39:01.590Z,39.03
2023-01-09T03:40:05.500Z,36.36
2023-01-09T03:41:08.553Z,38.92
2023-01-09T03:42:11.493Z,35.41
2023-01-09T03:43:14.617Z,33.96
2023-01-09T03:44:17.694Z,33.36
2023-01-09T03:45:20.771Z,34.53
2023-01-09T03:46:23.874Z,37.33
2023-01-09T03:47:27.103Z,37.36
2023-01-09T03:48:30.135Z,36.75
2023-01-09T03:49:33.069Z,37.38
2023-01-09T03:50:36.312Z,30.48
2023-01-09T03:51:39.259Z,33.69
2023-01-09T03:52:42.295Z,31.68
2023-01-09T03:53:45.323Z,32.98
2023-01-09T03:54:48.262Z,32.94
2023-01-09T03:55:53.601Z,34.01
2023-01-09T03:56:56.583Z,30.39
2023-01-09T03:57:59.608Z,33.68
2023-01-09T03:59:02.534Z,33.49
2023-01-09T04:00:07.941Z,30.56
2023-01-09T04:01:13.161Z,31.40
2023-01-09T04:02:16.636Z,31.28
2023-01-09T04:03:20.704Z,32.82
2023-01-09T04:04:23.635Z,30.86
2023-01-09T04:05:26.661Z,32.78
2023-01-09T04:06:29.820Z,36.70
2023-01-09T04:07:32.832Z,34.96
2023-01-09T04:08:35.764Z,38.31
2023-01-09T04:09:38.683Z,36.13
2023-01-09T04:10:44.182Z,35.95
2023-01-09T04:11:47.454Z,33.85
2023-01-09T04:12:50.380Z,34.82
2023-01-09T04:13:53.305Z,33.39
2023-01-09T04:14:56.568Z,35.17
2023-01-09T04:15:59.680Z,31.34
2023-01-09T04:17:02.653Z,34.78
2023-01-09T04:18:05.587Z,33.51
2023-01-09T04:19:08.506Z,35.14
2023-01-09T04:20:12.789Z,32.48
2023-01-09T04:21:15.735Z,34.67
2023-01-09T04:22:18.697Z,32.86
2023-01-09T04:23:21.610Z,28.71
2023-01-09T04:24:24.528Z,33.79
2023-01-09T04:25:27.600Z,33.54
2023-01-09T04:26:30.532Z,31.81
2023-01-09T04:27:34.940Z,32.99
2023-01-09T04:28:37.993Z,30.41
2023-01-09T04:29:40.939Z,30.82
2023-01-09T04:30:44.267Z,34.50
2023-01-09T04:31:47.286Z,36.08
2023-01-09T04:32:51.491Z,31.71
2023-01-09T04:33:54.481Z,30.41
2023-01-09T04:34:57.516Z,32.22
2023-01-09T04:36:00.475Z,29.77
2023-01-09T04:37:03.677Z,31.79
2023-01-09T04:38:06.724Z,34.16
2023-01-09T04:39:09.869Z,32.43
2023-01-09T04:40:13.720Z,32.36
2023-01-09T04:41:18.540Z,36.17
2023-01-09T04:42:21.702Z,29.38
2023-01-09T04:43:24.750Z,36.64
2023-01-09T04:44:27.718Z,36.64
2023-01-09T04:45:30.809Z,32.74
2023-01-09T04:46:34.017Z,32.30
2023-01-09T04:47:37.267Z,37.32
2023-01-09T04:48:40.211Z,32.30
2023-01-09T04:49:43.258Z,33.29
2023-01-09T04:50:46.189Z,30.71
2023-01-09T04:51:49.240Z,36.98
2023-01-09T04:52:52.190Z,38.36
2023-01-09T04:53:55.127Z,33.08
2023-01-09T04:54:58.182Z,32.80
2023-01-09T04:56:01.647Z,34.26
2023-01-09T04:57:04.621Z,37.26
2023-01-09T04:58:07.652Z,35.19
2023-01-09T04:59:10.702Z,33.73
2023-01-09T05:00:14.579Z,37.33
2023-01-09T05:01:17.722Z,40.44
2023-01-09T05:02:20.894Z,31.29
2023-01-09T05:03:23.913Z,38.66
2023-01-09T05:04:27.077Z,40.52
2023-01-09T05:05:30.235Z,33.91
2023-01-09T05:06:33.802Z,39.79
2023-01-09T05:07:36.844Z,37.96
2023-01-09T05:08:39.904Z,42.94
2023-01-09T05:09:44.148Z,33.22
2023-01-09T05:10:47.418Z,41.38
2023-01-09T05:11:50.842Z,36.94
2023-01-09T05:12:53.767Z,36.09
2023-01-09T05:13:56.629Z,34.32
2023-01-09T05:14:59.767Z,40.38
2023-01-09T05:16:02.751Z,36.61
2023-01-09T05:17:05.677Z,36.77
2023-01-09T05:18:08.588Z,45.56
2023-01-09T05:19:11.776Z,37.29
2023-01-09T05:20:15.170Z,37.37
2023-01-09T05:21:18.226Z,39.77
2023-01-09T05:22:21.365Z,46.63
2023-01-09T05:23:24.292Z,38.37
2023-01-09T05:24:27.310Z,40.74
2023-01-09T05:25:30.266Z,40.28
2023-01-09T05:26:33.503Z,42.60
2023-01-09T05:27:36.522Z,41.61
2023-01-09T05:28:39.504Z,39.63
2023-01-09T05:29:42.457Z,38.60
2023-01-09T05:30:46.878Z,41.64
2023-01-09T05:31:49.942Z,36.25
2023-01-09T05:32:52.934Z,39.34
2023-01-09T05:33:57.595Z,43.58
2023-01-09T05:35:00.584Z,40.80
2023-01-09T05:36:03.845Z,42.78
2023-01-09T05:37:06.989Z,42.47
2023-01-09T05:38:11.025Z,40.17
2023-01-09T05:39:13.987Z,41.97
2023-01-09T05:40:17.552Z,37.84
2023-01-09T05:41:21.366Z,42.07
2023-01-09T05:42:25.284Z,41.43
2023-01-09T05:43:28.291Z,41.30
2023-01-09T05:44:31.223Z,41.51
2023-01-09T05:45:34.840Z,43.61
2023-01-09T05:46:37.909Z,43.98
2023-01-09T05:47:41.280Z,45.62
2023-01-09T05:48:44.642Z,46.87
2023-01-09T05:49:47.771Z,47.53
2023-01-09T05:50:50.812Z,41.26
2023-01-09T05:51:53.842Z,36.91
2023-01-09T05:52:56.779Z,44.75
2023-01-09T05:53:59.979Z,43.46
2023-01-09T05:55:03.192Z,48.81
2023-01-09T05:56:06.680Z,45.10
2023-01-09T05:57:09.867Z,42.93
2023-01-09T05:58:13.042Z,46.11
2023-01-09T05:59:16.224Z,46.66
2023-01-09T06:00:19.840Z,46.18
2023-01-09T06:01:23.837Z,46.19
2023-01-09T06:02:27.195Z,51.67
2023-01-09T06:03:30.114Z,48.92
2023-01-09T06:04:33.153Z,48.06
2023-01-09T06:05:36.104Z,56.28
2023-01-09T06:06:40.345Z,62.96
2023-01-09T06:07:43.506Z,44.85
2023-01-09T06:08:46.447Z,45.87
2023-01-09T06:09:49.806Z,59.32
2023-01-09T06:10:52.854Z,55.71
2023-01-09T06:11:56.477Z,52.68
2023-01-09T06:12:59.525Z,54.11
2023-01-09T06:14:02.484Z,52.61
2023-01-09T06:15:08.664Z,58.48
2023-01-09T06:16:13.130Z,61.48
2023-01-09T06:17:16.081Z,57.96
2023-01-09T06:18:19.521Z,62.62
2023-01-09T06:19:22.472Z,58.52
2023-01-09T06:25:26.919Z,54.29
2023-01-09T06:26:29.846Z,47.41
2023-01-09T06:27:32.923Z,44.39
2023-01-09T06:28:35.858Z,45.51
2023-01-09T06:29:39.585Z,48.83
2023-01-09T06:30:42.588Z,46.18
2023-01-09T06:31:45.651Z,47.86
2023-01-09T06:32:49.480Z,47.76
2023-01-09T06:33:52.679Z,46.53
2023-01-09T06:34:55.632Z,51.33
2023-01-09T06:35:58.701Z,49.71
2023-01-09T06:37:02.198Z,46.28
2023-01-09T06:38:05.667Z,51.82
2023-01-09T06:39:09.100Z,52.51
2023-01-09T06:40:13.479Z,53.58
2023-01-09T06:41:16.730Z,52.66
2023-01-09T06:42:20.002Z,53.51
2023-01-09T06:43:23.375Z,56.84
2023-01-09T06:44:26.416Z,57.16
2023-01-09T06:45:29.556Z,63.33
2023-01-09T06:46:32.615Z,58.12
2023-01-09T06:47:35.531Z,60.35
2023-01-09T06:48:38.958Z,62.79
2023-01-09T06:49:41.839Z,67.34
2023-01-09T06:50:45.877Z,65.32
2023-01-09T06:51:50.588Z,55.31
2023-01-09T06:52:53.730Z,55.96
2023-01-09T06:53:56.760Z,60.54
2023-01-09T06:55:00.119Z,52.28
2023-01-09T06:56:03.509Z,55.21
2023-01-09T06:57:06.840Z,53.68
2023-01-09T06:58:09.854Z,49.26
2023-01-09T06:59:12.974Z,52.47
2023-01-09T07:00:16.787Z,54.71
2023-01-09T07:01:19.996Z,52.21
2023-01-09T07:02:23.368Z,54.36
2023-01-09T07:03:26.283Z,55.32
2023-01-09T07:04:29.393Z,53.58
2023-01-09T07:05:35.925Z,48.44
2023-01-09T07:06:39.190Z,54.25
2023-01-09T07:07:42.441Z,48.25
2023-01-09T07:08:47.776Z,45.63
2023-01-09T07:09:50.335Z,39.16
2023-01-09T07:10:53.622Z,41.84
2023-01-09T07:11:56.586Z,41.41
2023-01-09T07:12:59.400Z,36.11
2023-01-09T07:14:02.451Z,39.52
2023-01-09T07:15:06.042Z,40.29
2023-01-09T07:16:09.593Z,40.89
2023-01-09T07:17:13.172Z,44.76
2023-01-09T07:18:16.325Z,37.56
2023-01-09T07:19:19.364Z,40.38
2023-01-09T07:20:23.316Z,41.31
2023-01-09T07:21:27.189Z,43.21
2023-01-09T07:22:30.124Z,37.01
2023-01-09T07:23:33.976Z,42.73
2023-01-09T07:24:36.915Z,46.79
2023-01-09T07:25:41.984Z,43.54
2023-01-09T07:26:45.283Z,41.08
2023-01-09T07:27:48.238Z,39.13
2023-01-09T07:28:51.301Z,40.58
2023-01-09T07:29:54.256Z,39.28
2023-01-09T07:31:01.160Z,42.76
2023-01-09T07:32:04.478Z,38.06
2023-01-09T07:33:07.522Z,37.09
2023-01-09T07:34:10.569Z,33.99
2023-01-09T07:35:13.510Z,44.08
2023-01-09T07:36:17.178Z,38.42
2023-01-09T07:37:20.116Z,37.10
2023-01-09T07:38:23.150Z,44.96
2023-01-09T07:39:26.769Z,38.69
2023-01-09T07:40:30.022Z,45.65
2023-01-09T07:41:33.082Z,45.97
2023-01-09T07:42:36.146Z,43.54
2023-01-09T07:43:39.498Z,41.47
2023-01-09T07:44:42.552Z,36.99
2023-01-09T07:45:46.030Z,41.96
2023-01-09T07:46:49.288Z,36.92
2023-01-09T07:47:52.347Z,42.31
2023-01-09T07:48:55.516Z,38.06
2023-01-09T07:49:58.569Z,41.66
2023-01-09T07:51:01.722Z,39.95
2023-01-09T07:52:04.683Z,40.81
2023-01-09T07:53:07.732Z,39.39
2023-01-09T07:54:12.949Z,36.95
2023-01-09T07:55:17.441Z,36.63
2023-01-09T07:56:21.639Z,37.08
2023-01-09T07:57:24.600Z,33.56
2023-01-09T07:58:27.537Z,36.17
2023-01-09T07:59:30.479Z,42.27
2023-01-09T08:00:33.581Z,34.38
2023-01-09T08:01:36.738Z,34.50
2023-01-09T08:02:39.768Z,38.28
2023-01-09T08:03:42.674Z,37.62
2023-01-09T08:04:45.787Z,33.81
2023-01-09T08:05:51.296Z,36.32
2023-01-09T08:06:53.518Z,37.25
2023-01-09T08:07:56.459Z,39.46
2023-01-09T08:08:59.604Z,33.11
2023-01-09T08:10:02.664Z,32.28
2023-01-09T08:11:05.699Z,40.33
2023-01-09T08:12:08.787Z,38.08
2023-01-09T08:13:11.918Z,35.42
2023-01-09T08:14:14.954Z,36.71
2023-01-09T08:15:18.122Z,36.66
2023-01-09T08:16:21.142Z,37.07
2023-01-09T08:17:26.430Z,33.11
2023-01-09T08:18:28.866Z,33.82
2023-01-09T08:19:31.803Z,36.39
2023-01-09T08:20:34.990Z,36.01
2023-01-09T08:21:39.035Z,34.24
2023-01-09T08:22:43.352Z,29.93
2023-01-09T08:23:46.468Z,39.64
2023-01-09T08:24:49.470Z,36.49
2023-01-09T13:32:03.070Z,12.75
2023-01-09T13:34:35.675Z,10.69
2023-01-09T13:35:53.987Z,9.56
2023-01-09T13:36:58.312Z,9.41
2023-01-09T13:38:01.400Z,8.46
2023-01-09T13:39:05.038Z,8.73
2023-01-09T13:40:26.447Z,8.56
2023-01-09T13:41:49.077Z,10.84
2023-01-09T13:43:04.926Z,11.87
2023-01-09T13:44:25.384Z,14.53
2023-01-09T13:45:31.979Z,12.35
2023-01-09T13:46:44.301Z,12.39
2023-01-09T13:47:49.561Z,14.26
2023-01-09T13:48:52.656Z,15.32
2023-01-09T13:50:10.683Z,17.82
2023-01-09T13:51:44.615Z,18.53
2023-01-09T13:52:47.486Z,20.83
2023-01-09T13:53:50.465Z,22.36
2023-01-09T13:55:00.037Z,18.32
2023-01-09T13:56:05.764Z,16.96
2023-01-09T13:57:21.130Z,20.51
2023-01-09T13:58:32.386Z,16.18
2023-01-09T13:59:35.275Z,17.07
2023-01-09T14:00:42.046Z,17.45
2023-01-09T14:01:46.915Z,17.83
2023-01-09T14:02:59.071Z,18.16
2023-01-09T14:04:13.377Z,18.76
2023-01-09T14:05:25.989Z,21.80
2023-01-09T14:06:29.339Z,17.78
2023-01-09T14:07:37.032Z,18.76
2023-01-09T14:08:41.493Z,20.06
2023-01-09T14:09:48.088Z,20.36
2023-01-09T14:11:01.083Z,23.07
2023-01-09T14:12:06.298Z,21.66
2023-01-09T14:13:15.562Z,21.36
2023-01-09T14:14:25.225Z,22.55
2023-01-09T14:15:31.779Z,24.67
2023-01-09T14:16:36.697Z,26.72
2023-01-09T14:17:39.815Z,25.11
2023-01-09T14:19:07.349Z,26.66
2023-01-09T14:20:13.956Z,22.86
2023-01-09T14:21:17.321Z,28.42
2023-01-09T14:22:29.440Z,26.86
2023-01-09T14:23:50.948Z,22.26
2023-01-09T14:24:45.637Z,20.99
2023-01-09T14:25:50.729Z,22.38
2023-01-09T14:26:59.486Z,22.63
2023-01-09T14:28:07.632Z,21.56
2023-01-09T14:29:33.773Z,22.39
2023-01-09T14:30:55.486Z,21.85
2023-01-09T16:52:35.887Z,15.73
2023-01-09T16:53:38.847Z,16.48
2023-01-09T16:54:43.263Z,16.87
2023-01-09T16:55:46.977Z,15.59
2023-01-09T16:56:53.008Z,15.44
2023-01-09T16:57:56.028Z,15.96
2023-01-09T16:58:59.088Z,16.32
2023-01-09T17:00:03.238Z,15.57
2023-01-09T17:01:06.609Z,16.53
2023-01-09T17:02:18.589Z,15.46
2023-01-09T17:03:22.036Z,15.79
2023-01-09T17:04:25.130Z,15.42
2023-01-09T17:05:28.115Z,15.43
2023-01-09T17:06:32.290Z,16.17
2023-01-09T17:07:37.330Z,15.46
2023-01-09T17:08:40.837Z,15.11
2023-01-09T17:09:45.290Z,15.43
2023-01-09T17:10:49.234Z,18.66
2023-01-09T17:11:52.323Z,20.19
2023-01-09T17:12:56.470Z,33.17
2023-01-09T17:14:01.363Z,34.36
2023-01-09T17:15:04.934Z,31.57
2023-01-09T17:16:10.649Z,32.71
2023-01-09T17:17:14.199Z,35.11
2023-01-09T17:18:22.935Z,32.87
2023-01-09T17:19:26.029Z,33.24
2023-01-09T17:20:30.001Z,29.35
2023-01-09T17:21:32.979Z,29.64
2023-01-09T17:22:36.072Z,29.28
2023-01-09T17:23:39.260Z,30.99
2023-01-09T17:25:00.405Z,31.61
2023-01-09T17:26:21.679Z,26.68
2023-01-09T17:27:50.030Z,26.10
2023-01-09T17:28:53.157Z,34.75
2023-01-09T17:29:56.243Z,26.66
2023-01-09T17:31:10.934Z,29.98
2023-01-09T17:32:17.898Z,25.99
2023-01-09T17:33:21.185Z,27.37
2023-01-09T17:34:24.415Z,19.18
2023-01-09T17:35:27.385Z,18.02
2023-01-09T17:36:33.964Z,24.38
2023-01-09T17:37:36.926Z,18.01
2023-01-09T17:38:39.998Z,20.18
2023-01-09T17:39:43.791Z,17.48
2023-01-09T17:40:46.859Z,17.16
2023-01-09T17:41:50.071Z,17.06
2023-01-09T17:42:53.169Z,14.64
2023-01-09T17:43:56.859Z,15.32
2023-01-09T17:44:59.907Z,15.93
2023-01-09T17:46:03.173Z,15.50
2023-01-09T17:47:06.728Z,16.12
2023-01-09T17:48:18.969Z,14.96
2023-01-09T17:49:22.971Z,15.85
2023-01-09T17:50:27.915Z,16.26
2023-01-09T17:51:31.006Z,15.93
2023-01-09T17:52:34.080Z,16.78
2023-01-09T17:53:37.046Z,15.83
2023-01-09T17:54:40.237Z,15.53
2023-01-09T17:55:43.315Z,15.75
2023-01-09T17:56:50.247Z,16.06
2023-01-09T17:57:53.511Z,16.14
2023-01-09T17:58:56.628Z,14.60
2023-01-09T17:59:59.713Z,17.42
2023-01-09T18:01:02.946Z,16.14
2023-01-09T18:02:06.552Z,17.69
2023-01-09T18:03:09.545Z,19.51
2023-01-09T18:04:12.559Z,19.37
2023-01-09T18:05:15.725Z,19.11
2023-01-09T18:06:21.002Z,21.10
2023-01-09T18:07:24.035Z,20.06
2023-01-09T18:08:27.229Z,18.42
2023-01-09T18:09:30.356Z,19.87
2023-01-09T18:10:33.378Z,18.54
2023-01-09T18:11:36.453Z,17.58
2023-01-09T18:12:39.532Z,16.56
2023-01-09T18:13:43.298Z,17.01
2023-01-09T18:14:47.833Z,16.80
2023-01-09T18:15:51.637Z,18.01
2023-01-09T18:16:55.069Z,17.29
2023-01-09T18:17:58.167Z,17.02
2023-01-09T18:19:01.416Z,17.27
2023-01-09T18:20:05.241Z,18.36
2023-01-09T18:21:08.930Z,16.81
2023-01-09T18:22:11.924Z,16.31
2023-01-09T18:23:15.857Z,18.30
2023-01-09T18:24:18.836Z,17.48
2023-01-09T18:25:21.837Z,17.27
2023-01-09T18:26:24.814Z,17.23
2023-01-09T18:27:28.217Z,16.45
2023-01-09T18:28:31.147Z,15.85
2023-01-09T18:29:34.062Z,15.58
2023-01-09T18:30:37.035Z,15.70
2023-01-09T18:31:40.130Z,15.76
2023-01-09T18:32:43.156Z,15.17
2023-01-09T18:33:46.235Z,16.34
2023-01-09T18:34:49.410Z,15.10
2023-01-09T18:35:52.576Z,14.84
2023-01-09T18:36:55.586Z,16.31
2023-01-09T18:37:58.482Z,16.24
2023-01-09T18:39:03.511Z,14.84
2023-01-09T18:40:07.576Z,16.07
2023-01-09T18:41:11.051Z,16.29
2023-01-09T18:42:14.177Z,16.16
2023-01-09T18:43:19.016Z,16.64
2023-01-09T18:44:22.883Z,16.88
2023-01-09T18:45:26.307Z,17.43
2023-01-09T18:46:31.249Z,16.79
2023-01-09T18:47:34.239Z,16.09
2023-01-09T18:48:37.279Z,16.54
2023-01-09T18:49:40.252Z,16.87
2023-01-09T18:50:45.063Z,16.32
2023-01-09T18:51:48.340Z,16.54
2023-01-09T18:52:51.482Z,15.42
2023-01-09T18:53:55.202Z,15.43
2023-01-09T18:54:58.302Z,16.71
2023-01-09T18:57:14.793Z,14.92
2023-01-09T18:58:17.730Z,14.70
2023-01-09T18:59:20.647Z,14.13
2023-01-09T19:00:23.930Z,14.11
2023-01-09T19:01:28.617Z,14.26
2023-01-09T19:02:31.714Z,13.70
2023-01-09T19:03:34.818Z,13.46
2023-01-09T19:04:37.819Z,13.83
2023-01-09T19:05:40.868Z,14.17
2023-01-09T19:06:44.107Z,13.51
2023-01-09T19:07:47.290Z,13.58
2023-01-09T19:08:50.320Z,12.68
2023-01-09T19:09:53.464Z,13.77
2023-01-09T19:10:57.257Z,13.84
2023-01-09T19:12:00.263Z,12.11
2023-01-09T19:13:03.433Z,13.01
2023-01-09T19:14:06.417Z,13.41
2023-01-09T19:15:11.078Z,13.51
2023-01-09T19:16:14.136Z,11.92
2023-01-09T19:17:17.341Z,13.72
2023-01-09T19:18:20.408Z,12.53
2023-01-09T19:19:23.441Z,12.82
2023-01-09T19:20:26.485Z,13.39
2023-01-09T19:21:29.346Z,13.96
2023-01-09T19:22:32.591Z,13.19
2023-01-09T19:23:35.665Z,12.17
2023-01-09T19:24:39.031Z,13.13
2023-01-09T19:25:42.201Z,12.71
2023-01-09T19:26:47.303Z,12.83
2023-01-09T19:27:52.184Z,13.06
2023-01-09T19:28:56.885Z,12.76
2023-01-09T19:29:59.988Z,12.17
2023-01-09T19:31:03.259Z,12.88
2023-01-09T19:32:07.913Z,12.62
2023-01-09T19:33:11.918Z,12.88
2023-01-09T19:34:15.510Z,12.89
2023-01-09T19:35:19.588Z,14.09
2023-01-09T19:36:22.613Z,13.87
2023-01-09T19:37:25.708Z,13.41
2023-01-09T19:38:28.885Z,13.43
2023-01-09T19:39:31.927Z,13.60
2023-01-09T19:40:35.983Z,13.65
2023-01-09T19:41:39.213Z,13.74
2023-01-09T19:42:42.322Z,11.93
2023-01-09T19:43:46.397Z,12.33
2023-01-09T19:44:49.486Z,12.01
2023-01-09T19:45:53.857Z,11.84
2023-01-09T19:46:57.211Z,12.62
2023-01-09T19:48:00.328Z,12.01
2023-01-09T19:49:04.509Z,12.12
2023-01-09T19:50:08.470Z,12.72
2023-01-09T19:51:13.127Z,13.15
2023-01-09T19:52:16.421Z,13.01
2023-01-09T19:53:19.619Z,12.61
2023-01-09T19:54:22.623Z,13.16
2023-01-09T19:55:25.589Z,13.59
2023-01-09T19:56:35.076Z,13.62
2023-01-09T19:57:38.059Z,12.10
2023-01-09T19:58:42.146Z,12.80
2023-01-09T19:59:45.244Z,12.69
2023-01-09T20:00:48.835Z,12.69
2023-01-09T20:01:52.031Z,15.08
2023-01-09T20:02:55.438Z,13.85
2023-01-09T20:04:04.285Z,13.34
2023-01-09T20:05:07.967Z,13.27
2023-01-09T20:06:16.064Z,13.41
2023-01-09T20:07:20.774Z,13.23
2023-01-09T20:08:24.004Z,12.95
2023-01-09T20:09:28.343Z,14.33
2023-01-09T20:10:31.630Z,13.74
2023-01-09T20:11:34.797Z,11.41
2023-01-09T20:12:37.902Z,12.71
2023-01-09T20:13:41.191Z,12.39
2023-01-09T20:14:44.664Z,10.56
2023-01-09T20:15:47.641Z,10.96
2023-01-09T20:16:52.667Z,11.01
2023-01-09T20:17:55.695Z,11.34
2023-01-09T20:19:03.369Z,11.80
2023-01-09T20:20:07.491Z,11.25
2023-01-09T20:21:10.686Z,12.09
2023-01-09T20:22:13.778Z,13.35
2023-01-09T20:23:21.548Z,11.63
2023-01-09T20:24:24.790Z,12.35
2023-01-09T20:25:28.499Z,12.88
2023-01-09T20:26:33.383Z,12.25
2023-01-09T20:27:36.596Z,12.99
2023-01-09T20:28:39.658Z,11.60
2023-01-09T20:29:43.912Z,11.61
2023-01-09T20:30:50.170Z,11.42
2023-01-09T20:31:53.222Z,13.11
2023-01-09T20:32:56.140Z,11.81
2023-01-09T20:33:59.489Z,11.53
2023-01-09T20:35:02.581Z,11.10
2023-01-09T20:36:06.315Z,11.06
2023-01-09T20:37:09.870Z,10.92
2023-01-09T20:38:13.693Z,11.34
2023-01-09T20:39:16.881Z,17.12
2023-01-09T20:40:19.814Z,13.24
2023-01-09T20:41:23.376Z,11.01
2023-01-09T20:42:26.425Z,9.38
2023-01-09T20:43:29.648Z,9.36
2023-01-09T20:44:32.729Z,10.46
2023-01-09T20:45:36.200Z,9.85
2023-01-09T20:46:41.453Z,10.48
2023-01-09T20:47:44.956Z,10.12
2023-01-09T20:48:48.903Z,9.11
2023-01-09T20:49:51.961Z,9.90
2023-01-09T20:50:55.367Z,10.63
2023-01-09T20:51:58.469Z,9.82
2023-01-09T20:53:02.196Z,9.28
2023-01-09T20:54:05.206Z,9.62
2023-01-09T20:55:09.069Z,9.04
2023-01-09T20:56:12.748Z,9.89
2023-01-09T20:57:15.602Z,10.23
2023-01-09T20:58:18.759Z,10.98
2023-01-09T20:59:22.347Z,10.23
2023-01-09T21:00:27.479Z,10.45
2023-01-09T21:01:30.492Z,9.46
2023-01-09T21:02:35.232Z,10.41
2023-01-09T21:03:38.923Z,10.45
2023-01-09T21:04:42.098Z,9.66
2023-01-09T21:05:45.248Z,11.69
2023-01-09T21:06:50.047Z,10.08
2023-01-09T21:07:53.387Z,9.83
2023-01-09T21:08:56.455Z,10.64
2023-01-09T21:09:59.634Z,10.99
2023-01-09T21:11:03.126Z,9.86
2023-01-09T21:12:08.531Z,10.42
2023-01-09T21:13:11.771Z,10.37
2023-01-09T21:14:14.869Z,10.28
2023-01-09T21:15:19.202Z,9.43
2023-01-09T21:16:24.544Z,10.16
2023-01-09T21:17:28.596Z,8.96
2023-01-09T21:18:32.194Z,8.64
2023-01-09T21:19:35.312Z,8.22
2023-01-09T21:20:39.530Z,8.52
2023-01-09T21:21:42.753Z,7.94
2023-01-09T21:22:45.932Z,8.39
2023-01-09T21:23:51.447Z,8.16
2023-01-09T21:24:54.576Z,8.88
2023-01-09T21:25:58.982Z,8.24
2023-01-09T21:27:01.979Z,9.46
2023-01-09T21:28:06.064Z,8.27
2023-01-09T21:29:12.204Z,8.26
2023-01-09T21:30:15.731Z,7.70
2023-01-09T21:31:21.329Z,7.69
2023-01-09T21:32:24.528Z,8.00